createdAt,value
2023-04-11T00:04:39.030Z,99688.97
2023-04-11T00:09:40.791Z,99678.16
2023-04-11T00:14:46.234Z,99677.66
2023-04-11T00:19:48.505Z,99685.81
2023-04-11T00:24:50.545Z,99668.94
2023-04-11T00:29:52.866Z,99656.19
2023-04-11T00:34:55.236Z,99671.22
2023-04-11T00:39:56.905Z,99662.75
2023-04-11T00:44:58.238Z,99651.31
2023-04-11T00:49:59.719Z,99615.28
2023-04-11T00:55:04.289Z,99632.28
2023-04-11T01:00:09.752Z,99652.84
2023-04-11T01:05:18.034Z,99665.13
2023-04-11T01:10:19.519Z,99685.69
2023-04-11T01:15:21.407Z,99676.81
2023-04-11T01:20:22.907Z,99707.19
2023-04-11T01:25:24.973Z,99715.97
2023-04-11T01:30:26.542Z,99730.06
2023-04-11T01:35:28.144Z,99712.94
2023-04-11T01:40:31.349Z,99703.47
2023-04-11T01:45:33.001Z,99701.81
2023-04-11T01:50:34.693Z,99694.56
2023-04-11T01:55:36.126Z,99690.34
2023-04-11T02:00:38.425Z,99690.66
2023-04-11T02:05:44.628Z,99690.31
2023-04-11T02:10:51.390Z,99695.72
2023-04-11T02:16:10.407Z,99703.19
2023-04-11T02:21:17.468Z,99686.25
2023-04-11T02:26:24.907Z,99700.59
2023-04-11T02:31:27.677Z,99702.31
2023-04-11T02:36:30.164Z,99704.56
2023-04-11T02:41:34.913Z,99715.22
2023-04-11T02:46:36.506Z,99699.81
2023-04-11T02:51:37.968Z,99711.03
2023-04-11T02:56:39.364Z,99712.72
2023-04-11T03:01:41.629Z,99710.78
2023-04-11T03:06:43.112Z,99707.81
2023-04-11T03:11:46.927Z,99715.25
2023-04-11T03:16:48.828Z,99699.84
2023-04-11T03:21:50.421Z,99704.34
2023-04-11T03:26:52.004Z,99700.19
2023-04-11T03:31:53.347Z,99669.22
2023-04-11T03:36:54.868Z,99671.44
2023-04-11T03:41:56.257Z,99685.34
2023-04-11T03:46:57.738Z,99680.88
2023-04-11T03:51:59.287Z,99688.03
2023-04-11T03:57:01.060Z,99714.53
2023-04-11T04:02:02.644Z,99697.28
2023-04-11T04:07:04.142Z,99695.72
2023-04-11T04:12:05.788Z,99682.84
2023-04-11T04:17:08.228Z,99688.72
2023-04-11T04:22:17.456Z,99695.47
2023-04-11T04:27:18.874Z,99695.03
2023-04-11T04:32:23.886Z,99714.94
2023-04-11T04:37:25.917Z,99714.94
2023-04-11T04:42:29.110Z,99723.47
2023-04-11T04:47:33.389Z,99719.41
2023-04-11T04:52:34.965Z,99723.03
2023-04-11T04:57:36.354Z,99725.28
2023-04-11T05:02:38.093Z,99718.94
2023-04-11T05:07:40.316Z,99732.72
2023-04-11T05:12:41.742Z,99735.06
2023-04-11T05:17:43.182Z,99740.97
2023-04-11T05:22:44.604Z,99739.56
2023-04-11T05:27:46.078Z,99753.16
2023-04-11T05:32:47.737Z,99742.53
2023-04-11T05:37:49.263Z,99742.25
2023-04-11T05:42:51.016Z,99749.13
2023-04-11T05:47:52.433Z,99767.03
2023-04-11T05:52:53.800Z,99769.44
2023-04-11T05:57:55.436Z,99773.94
2023-04-11T06:02:57.538Z,99780.41
2023-04-11T06:07:59.910Z,99793.44
2023-04-11T06:13:01.690Z,99807.47
2023-04-11T06:18:03.355Z,99807.75
2023-04-11T06:23:04.903Z,99812.97
2023-04-11T06:28:06.541Z,99825.31
2023-04-11T06:33:07.941Z,99823.06
2023-04-11T06:38:09.342Z,99833.56
2023-04-11T06:43:11.223Z,99838.75
2023-04-11T06:48:13.743Z,99833.41
2023-04-11T06:53:15.201Z,99850.28
2023-04-11T06:58:16.941Z,99853.09
2023-04-11T07:03:19.801Z,99856.91
2023-04-11T07:08:21.434Z,99867.97
2023-04-11T07:13:22.799Z,99869.38
2023-04-11T07:18:25.867Z,99881.31
2023-04-11T07:23:28.579Z,99892.69
2023-04-11T07:28:31.245Z,99876.97
2023-04-11T07:33:32.582Z,99883.72
2023-04-11T07:38:34.361Z,99890.75
2023-04-11T07:43:36.310Z,99890.03
2023-04-11T07:48:37.638Z,99887.94
2023-04-11T07:53:39.018Z,99887.06
2023-04-11T07:58:41.324Z,99886.50
2023-04-11T08:03:43.161Z,99890.00
2023-04-11T08:08:45.903Z,99895.00
2023-04-11T08:13:47.401Z,99886.69
2023-04-11T08:18:49.050Z,99923.25
2023-04-11T08:23:53.268Z,99915.38
2023-04-11T08:28:54.674Z,99916.78
2023-04-11T08:33:59.147Z,99927.75
2023-04-11T08:39:01.903Z,99926.34
2023-04-11T08:44:04.095Z,99923.25
2023-04-11T08:49:05.479Z,99920.00
2023-04-11T08:54:07.660Z,99922.88
2023-04-11T08:59:09.035Z,99928.00
2023-04-11T09:04:11.416Z,99926.16
2023-04-11T09:09:29.080Z,99933.09
2023-04-11T09:14:31.708Z,99935.69
2023-04-11T09:19:35.089Z,99939.91
2023-04-11T09:24:37.856Z,99942.22
2023-04-11T09:29:48.090Z,99947.63
2023-04-11T09:34:49.634Z,99948.38
2023-04-11T09:39:59.602Z,99955.63
2023-04-11T09:45:02.156Z,99951.78
2023-04-11T09:50:03.651Z,99937.69
2023-04-11T09:55:08.339Z,99956.31
2023-04-11T10:00:17.123Z,99955.81
2023-04-11T10:05:20.164Z,99946.50
2023-04-11T10:10:23.722Z,99955.00
2023-04-11T10:15:25.143Z,99945.66
2023-04-11T10:20:36.002Z,99937.63
2023-04-11T10:25:59.052Z,99931.13
2023-04-11T10:31:06.995Z,99931.00
2023-04-11T10:36:12.272Z,99930.78
2023-04-11T10:41:16.912Z,99937.88
2023-04-11T10:46:22.910Z,99934.66
2023-04-11T10:51:26.783Z,99932.56
2023-04-11T10:56:40.445Z,99924.91
2023-04-11T11:01:48.990Z,99928.19
2023-04-11T11:06:57.392Z,99924.78
2023-04-11T11:12:15.229Z,99923.63
2023-04-11T11:17:17.110Z,99915.09
2023-04-11T11:22:25.655Z,99902.16
2023-04-11T11:27:27.279Z,99906.47
2023-04-11T11:32:29.005Z,99913.56
2023-04-11T11:37:30.795Z,99900.06
2023-04-11T11:42:32.201Z,99902.97
2023-04-11T11:47:42.258Z,99908.75
2023-04-11T11:52:44.676Z,99909.75
2023-04-11T11:57:47.559Z,99908.59
2023-04-11T12:02:52.366Z,99912.22
2023-04-11T12:07:55.527Z,99906.59
2023-04-11T12:12:57.040Z,99916.38
2023-04-11T12:17:58.410Z,99925.34
2023-04-11T12:22:59.797Z,99920.50
2023-04-11T12:28:01.238Z,99903.34
2023-04-11T12:33:03.138Z,99900.56
2023-04-11T12:38:04.892Z,99906.94
2023-04-11T12:43:06.344Z,99916.44
2023-04-11T12:48:08.191Z,99899.25
2023-04-11T12:53:10.345Z,99892.81
2023-04-11T12:58:11.830Z,99899.56
2023-04-11T13:03:13.415Z,99904.47
2023-04-11T13:08:15.470Z,99903.72
2023-04-11T13:13:18.623Z,99916.16
2023-04-11T13:18:20.408Z,99912.03
2023-04-11T13:23:21.781Z,99900.03
2023-04-11T13:28:23.581Z,99882.28
2023-04-11T13:33:24.952Z,99892.84
2023-04-11T13:38:26.282Z,99901.53
2023-04-11T13:43:28.496Z,99890.75
2023-04-11T13:48:29.916Z,99880.31
2023-04-11T13:53:31.295Z,99894.84
2023-04-11T13:58:32.920Z,99897.72
2023-04-11T14:03:34.559Z,99905.59
2023-04-11T14:08:36.854Z,99898.38
2023-04-11T14:13:38.271Z,99915.03
2023-04-11T14:18:39.629Z,99910.09
2023-04-11T14:23:41.880Z,99890.38
2023-04-11T14:28:43.241Z,99909.19
2023-04-11T14:33:44.578Z,99906.84
2023-04-11T14:38:46.108Z,99901.56
2023-04-11T14:43:48.426Z,99885.97
2023-04-11T14:48:49.752Z,99889.38
2023-04-11T14:53:55.331Z,99889.13
2023-04-11T14:58:57.008Z,99890.38
2023-04-11T15:03:58.785Z,99906.97
2023-04-11T15:09:01.306Z,99899.47
2023-04-11T15:14:02.847Z,99909.75
2023-04-11T15:19:04.434Z,99898.34
2023-04-11T15:24:07.331Z,99906.03
2023-04-11T15:29:13.839Z,99895.88
2023-04-11T15:34:15.232Z,99923.25
2023-04-11T15:39:17.057Z,99914.97
2023-04-11T15:44:18.478Z,99917.69
2023-04-11T15:49:19.921Z,99894.19
2023-04-11T15:54:21.295Z,99887.94
2023-04-11T15:59:24.892Z,99890.63
2023-04-11T16:04:27.258Z,99890.81
2023-04-11T16:09:28.923Z,99886.84
2023-04-11T16:14:30.330Z,99883.84
2023-04-11T16:19:31.878Z,99884.19
2023-04-11T16:24:33.639Z,99886.53
2023-04-11T16:29:35.360Z,99873.75
2023-04-11T16:34:36.933Z,99856.31
2023-04-11T16:39:38.389Z,99869.72
2023-04-11T16:44:39.884Z,99873.56
2023-04-11T16:49:46.986Z,99871.00
2023-04-11T16:54:48.769Z,99865.47
2023-04-11T16:59:50.981Z,99863.25
2023-04-11T17:04:52.401Z,99863.22
2023-04-11T17:09:53.996Z,99843.03
2023-04-11T17:14:56.100Z,99842.53
2023-04-11T17:19:57.506Z,99863.31
2023-04-11T17:24:59.867Z,99850.38
2023-04-11T17:30:02.619Z,99861.53
2023-04-11T17:35:07.085Z,99870.91
2023-04-11T17:40:15.244Z,99867.84
2023-04-11T17:45:18.502Z,99872.13
2023-04-11T17:50:20.282Z,99880.00
2023-04-11T17:55:21.880Z,99882.66
2023-04-11T18:00:23.404Z,99874.56
2023-04-11T18:05:32.775Z,99879.06
2023-04-11T18:10:34.261Z,99879.19
2023-04-11T18:15:36.389Z,99877.25
2023-04-11T18:20:38.063Z,99891.34
2023-04-11T18:25:39.446Z,99886.63
2023-04-11T18:30:41.028Z,99898.16
2023-04-11T18:35:42.538Z,99885.56
2023-04-11T18:40:44.155Z,99876.31
2023-04-11T18:45:48.962Z,99891.22
2023-04-11T18:51:00.386Z,99885.03
2023-04-11T18:56:03.512Z,99892.06
2023-04-11T19:01:14.859Z,99888.47
2023-04-11T19:06:18.329Z,99893.97
2023-04-11T19:11:19.864Z,99893.06
2023-04-11T19:16:21.335Z,99881.16
2023-04-11T19:21:23.854Z,99874.94
2023-04-11T19:26:28.335Z,99870.66
2023-04-11T19:31:32.368Z,99875.34
2023-04-11T19:36:33.977Z,99858.53
2023-04-11T19:41:35.526Z,99859.66
2023-04-11T19:46:36.995Z,99854.78
2023-04-11T19:51:39.481Z,99843.31
2023-04-11T19:56:45.193Z,99844.44
2023-04-11T20:01:46.750Z,99834.19
2023-04-11T20:06:50.590Z,99837.16
2023-04-11T20:11:52.106Z,99840.81
2023-04-11T20:16:54.094Z,99837.53
2023-04-11T20:21:55.922Z,99830.13
2023-04-11T20:26:57.410Z,99815.88
2023-04-11T20:32:01.465Z,99821.22
2023-04-11T20:37:04.542Z,99804.44
2023-04-11T20:42:10.556Z,99799.00
2023-04-11T20:47:11.947Z,99800.53
2023-04-11T20:52:13.530Z,99806.81
2023-04-11T20:57:14.898Z,99786.72
2023-04-11T21:02:17.198Z,99783.66
2023-04-11T21:07:22.575Z,99775.94
2023-04-11T21:12:23.930Z,99772.78
2023-04-11T21:17:25.915Z,99766.09
2023-04-11T21:22:27.446Z,99762.69
2023-04-11T21:27:28.840Z,99748.13
2023-04-11T21:32:30.318Z,99749.78
2023-04-11T21:37:31.959Z,99739.69
2023-04-11T21:42:33.459Z,99741.94
2023-04-11T21:47:35.270Z,99730.16
2023-04-11T21:52:36.778Z,99716.97
2023-04-11T21:57:38.159Z,99728.22
2023-04-11T22:02:40.515Z,99718.34
2023-04-11T22:07:48.249Z,99702.13
2023-04-11T22:12:49.733Z,99702.78
2023-04-11T22:17:56.269Z,99693.81
2023-04-11T22:22:57.939Z,99697.56
2023-04-11T22:27:59.279Z,99682.81
2023-04-11T22:33:01.774Z,99677.50
2023-04-11T22:38:03.780Z,99680.16
2023-04-11T22:43:05.647Z,99680.47
2023-04-11T22:48:07.278Z,99658.31
2023-04-11T22:53:13.994Z,99659.00
2023-04-11T22:58:15.522Z,99658.31
2023-04-11T23:03:18.301Z,99642.91
2023-04-11T23:08:19.700Z,99639.53
2023-04-11T23:13:21.044Z,99627.81
2023-04-11T23:18:22.530Z,99622.47
2023-04-11T23:23:24.307Z,99621.00
2023-04-11T23:28:25.776Z,99619.94
2023-04-11T23:33:27.183Z,99595.78
2023-04-11T23:38:28.950Z,99585.41
2023-04-11T23:43:30.539Z,99582.75
2023-04-11T23:48:32.137Z,99571.34
2023-04-11T23:53:34.194Z,99555.50
2023-04-11T23:58:35.971Z,99551.31
